sensor_id;sensor_type;location;lat;lon;timestamp;pressure;altitude;pressure_sealevel;temperature;humidity
67345;BME280;54230;52.402;6.276;2023-02-11T00:00:00;103300.0;;;6.4;96.9
67345;BME280;54230;52.402;6.276;2023-02-11T00:05:00;103290.00000000001;;;6.3;96.9
67345;BME280;54230;52.402;6.276;2023-02-11T00:10:00;103309.99999999999;;;6.4;96.9
67345;BME280;54230;52.402;6.276;2023-02-11T00:15:00;103320.0;;;6.4;97.1
67345;BME280;54230;52.402;6.276;2023-02-11T00:20:00;103330.0;;;6.4;97.4
67345;BME280;54230;52.402;6.276;2023-02-11T00:25:00;103340.00000000001;;;6.5;97.1
67345;BME280;54230;52.402;6.276;2023-02-11T00:30:00;103340.00000000001;;;6.5;96.8
67345;BME280;54230;52.402;6.276;2023-02-11T00:35:00;103320.0;;;6.3;97.2
67345;BME280;54230;52.402;6.276;2023-02-11T00:40:00;103330.0;;;6.5;97.1
67345;BME280;54230;52.402;6.276;2023-02-11T00:45:00;103330.0;;;6.5;97.2
67345;BME280;54230;52.402;6.276;2023-02-11T00:50:00;103330.0;;;6.4;97.6
67345;BME280;54230;52.402;6.276;2023-02-11T00:55:00;103309.99999999999;;;6.5;97.3
67345;BME280;54230;52.402;6.276;2023-02-11T01:00:00;103320.0;;;6.5;97.2
67345;BME280;54230;52.402;6.276;2023-02-11T01:05:00;103300.0;;;6.3;97.3
67345;BME280;54230;52.402;6.276;2023-02-11T01:10:00;103320.0;;;6.5;96.9
67345;BME280;54230;52.402;6.276;2023-02-11T01:15:00;103320.0;;;6.6;96.6
67345;BME280;54230;52.402;6.276;2023-02-11T01:20:01;103330.0;;;6.6;96.9
67345;BME280;54230;52.402;6.276;2023-02-11T01:25:00;103330.0;;;6.6;96.7
67345;BME280;54230;52.402;6.276;2023-02-11T01:30:00;103320.0;;;6.5;97.3
67345;BME280;54230;52.402;6.276;2023-02-11T01:35:00;103320.0;;;6.5;97.1
67345;BME280;54230;52.402;6.276;2023-02-11T01:40:01;103320.0;;;6.5;97.5
67345;BME280;54230;52.402;6.276;2023-02-11T01:45:02;103309.99999999999;;;6.5;97.4
67345;BME280;54230;52.402;6.276;2023-02-11T01:50:00;103320.0;;;6.5;97.8
67345;BME280;54230;52.402;6.276;2023-02-11T01:55:02;103290.00000000001;;;6.5;98.0
67345;BME280;54230;52.402;6.276;2023-02-11T02:00:07;103290.00000000001;;;6.5;98.1
67345;BME280;54230;52.402;6.276;2023-02-11T02:05:04;103290.00000000001;;;6.4;98.7
67345;BME280;54230;52.402;6.276;2023-02-11T02:10:04;103290.00000000001;;;6.4;98.9
67345;BME280;54230;52.402;6.276;2023-02-11T02:15:17;103290.00000000001;;;6.5;99.3
67345;BME280;54230;52.402;6.276;2023-02-11T02:20:09;103290.00000000001;;;6.5;99.7
67345;BME280;54230;52.402;6.276;2023-02-11T02:25:14;103270.0;;;6.5;99.5
67345;BME280;54230;52.402;6.276;2023-02-11T02:30:14;103290.00000000001;;;6.4;99.9
67345;BME280;54230;52.402;6.276;2023-02-11T02:35:04;103280.0;;;6.4;99.9
67345;BME280;54230;52.402;6.276;2023-02-11T02:40:03;103280.0;;;6.4;100.0
67345;BME280;54230;52.402;6.276;2023-02-11T02:45:00;103280.0;;;6.5;99.7
67345;BME280;54230;52.402;6.276;2023-02-11T02:50:00;103259.99999999999;;;6.5;100.0
67345;BME280;54230;52.402;6.276;2023-02-11T02:55:07;103250.0;;;6.5;100.0
67345;BME280;54230;52.402;6.276;2023-02-11T03:00:13;103250.0;;;6.5;100.0
67345;BME280;54230;52.402;6.276;2023-02-11T03:05:03;103250.0;;;6.5;100.0
67345;BME280;54230;52.402;6.276;2023-02-11T03:10:04;103250.0;;;6.5;100.0
67345;BME280;54230;52.402;6.276;2023-02-11T03:15:02;103250.0;;;6.5;100.0
67345;BME280;54230;52.402;6.276;2023-02-11T03:20:02;103250.0;;;6.5;100.0
67345;BME280;54230;52.402;6.276;2023-02-11T03:25:01;103259.99999999999;;;6.5;100.0
67345;BME280;54230;52.402;6.276;2023-02-11T03:30:05;103259.99999999999;;;6.6;100.0
67345;BME280;54230;52.402;6.276;2023-02-11T03:35:04;103259.99999999999;;;6.6;100.0
67345;BME280;54230;52.402;6.276;2023-02-11T03:40:02;103240.00000000001;;;6.5;100.0
67345;BME280;54230;52.402;6.276;2023-02-11T03:45:04;103240.00000000001;;;6.6;100.0
67345;BME280;54230;52.402;6.276;2023-02-11T03:50:02;103250.0;;;6.6;100.0
67345;BME280;54230;52.402;6.276;2023-02-11T03:55:02;103250.0;;;6.6;100.0
67345;BME280;54230;52.402;6.276;2023-02-11T04:00:00;103250.0;;;6.6;100.0
67345;BME280;54230;52.402;6.276;2023-02-11T04:05:00;103270.0;;;6.6;100.0
67345;BME280;54230;52.402;6.276;2023-02-11T04:10:00;103259.99999999999;;;6.6;100.0
67345;BME280;54230;52.402;6.276;2023-02-11T04:15:00;103250.0;;;6.6;100.0
67345;BME280;54230;52.402;6.276;2023-02-11T04:20:00;103250.0;;;6.6;100.0
67345;BME280;54230;52.402;6.276;2023-02-11T04:25:00;103250.0;;;6.7;100.0
67345;BME280;54230;52.402;6.276;2023-02-11T04:30:00;103259.99999999999;;;6.7;100.0
67345;BME280;54230;52.402;6.276;2023-02-11T04:35:00;103259.99999999999;;;6.7;100.0
67345;BME280;54230;52.402;6.276;2023-02-11T04:40:00;103259.99999999999;;;6.7;100.0
67345;BME280;54230;52.402;6.276;2023-02-11T04:45:00;103250.0;;;6.7;100.0
67345;BME280;54230;52.402;6.276;2023-02-11T04:50:00;103259.99999999999;;;6.6;100.0
67345;BME280;54230;52.402;6.276;2023-02-11T04:55:00;103259.99999999999;;;6.6;100.0
67345;BME280;54230;52.402;6.276;2023-02-11T05:00:00;103259.99999999999;;;6.5;100.0
67345;BME280;54230;52.402;6.276;2023-02-11T05:05:00;103270.0;;;6.4;100.0
67345;BME280;54230;52.402;6.276;2023-02-11T05:10:00;103270.0;;;6.5;100.0
67345;BME280;54230;52.402;6.276;2023-02-11T05:15:00;103270.0;;;6.4;100.0
67345;BME280;54230;52.402;6.276;2023-02-11T05:20:00;103270.0;;;6.4;100.0
67345;BME280;54230;52.402;6.276;2023-02-11T05:25:00;103280.0;;;6.4;100.0
67345;BME280;54230;52.402;6.276;2023-02-11T05:30:00;103280.0;;;6.3;100.0
67345;BME280;54230;52.402;6.276;2023-02-11T05:35:00;103270.0;;;6.3;100.0
67345;BME280;54230;52.402;6.276;2023-02-11T05:40:00;103270.0;;;6.3;100.0
67345;BME280;54230;52.402;6.276;2023-02-11T05:45:00;103280.0;;;6.3;100.0
67345;BME280;54230;52.402;6.276;2023-02-11T05:50:00;103280.0;;;6.3;100.0
67345;BME280;54230;52.402;6.276;2023-02-11T05:55:00;103280.0;;;6.3;100.0
67345;BME280;54230;52.402;6.276;2023-02-11T06:00:00;103280.0;;;6.3;100.0
67345;BME280;54230;52.402;6.276;2023-02-11T06:05:00;103280.0;;;6.3;100.0
67345;BME280;54230;52.402;6.276;2023-02-11T06:10:00;103280.0;;;6.3;100.0
67345;BME280;54230;52.402;6.276;2023-02-11T06:15:00;103280.0;;;6.3;100.0
67345;BME280;54230;52.402;6.276;2023-02-11T06:20:00;103280.0;;;6.3;100.0
67345;BME280;54230;52.402;6.276;2023-02-11T06:25:00;103280.0;;;6.3;100.0
67345;BME280;54230;52.402;6.276;2023-02-11T06:30:00;103280.0;;;6.3;100.0
67345;BME280;54230;52.402;6.276;2023-02-11T06:35:00;103280.0;;;6.3;100.0
67345;BME280;54230;52.402;6.276;2023-02-11T06:40:00;103280.0;;;6.3;100.0
67345;BME280;54230;52.402;6.276;2023-02-11T06:45:00;103280.0;;;6.4;100.0
67345;BME280;54230;52.402;6.276;2023-02-11T06:50:00;103280.0;;;6.4;100.0
67345;BME280;54230;52.402;6.276;2023-02-11T06:55:00;103280.0;;;6.4;100.0
67345;BME280;54230;52.402;6.276;2023-02-11T07:00:00;103290.00000000001;;;6.5;100.0
67345;BME280;54230;52.402;6.276;2023-02-11T07:05:00;103280.0;;;6.5;100.0
67345;BME280;54230;52.402;6.276;2023-02-11T07:10:00;103290.00000000001;;;6.5;100.0
67345;BME280;54230;52.402;6.276;2023-02-11T07:15:00;103290.00000000001;;;6.5;100.0
67345;BME280;54230;52.402;6.276;2023-02-11T07:20:00;103280.0;;;6.6;100.0
67345;BME280;54230;52.402;6.276;2023-02-11T07:25:00;103290.00000000001;;;6.6;100.0
67345;BME280;54230;52.402;6.276;2023-02-11T07:30:00;103290.00000000001;;;6.6;100.0
67345;BME280;54230;52.402;6.276;2023-02-11T07:35:00;103290.00000000001;;;6.6;100.0
67345;BME280;54230;52.402;6.276;2023-02-11T07:40:00;103300.0;;;6.7;100.0
67345;BME280;54230;52.402;6.276;2023-02-11T07:45:00;103300.0;;;6.7;100.0
67345;BME280;54230;52.402;6.276;2023-02-11T07:50:00;103309.99999999999;;;6.7;100.0
67345;BME280;54230;52.402;6.276;2023-02-11T07:55:00;103309.99999999999;;;6.8;100.0
67345;BME280;54230;52.402;6.276;2023-02-11T08:00:00;103309.99999999999;;;6.8;100.0
67345;BME280;54230;52.402;6.276;2023-02-11T08:05:00;103300.0;;;6.8;100.0
67345;BME280;54230;52.402;6.276;2023-02-11T08:10:00;103300.0;;;6.9;100.0
67345;BME280;54230;52.402;6.276;2023-02-11T08:15:00;103300.0;;;7.0;100.0
67345;BME280;54230;52.402;6.276;2023-02-11T08:20:00;103309.99999999999;;;7.1;100.0
67345;BME280;54230;52.402;6.276;2023-02-11T08:25:00;103320.0;;;7.2;100.0
67345;BME280;54230;52.402;6.276;2023-02-11T08:30:00;103320.0;;;7.2;100.0
67345;BME280;54230;52.402;6.276;2023-02-11T08:35:00;103330.0;;;7.2;100.0
67345;BME280;54230;52.402;6.276;2023-02-11T08:40:00;103340.00000000001;;;7.2;100.0
67345;BME280;54230;52.402;6.276;2023-02-11T08:45:00;103340.00000000001;;;7.3;100.0
67345;BME280;54230;52.402;6.276;2023-02-11T08:50:00;103340.00000000001;;;7.4;100.0
67345;BME280;54230;52.402;6.276;2023-02-11T08:55:00;103350.0;;;7.5;100.0
67345;BME280;54230;52.402;6.276;2023-02-11T09:00:00;103350.0;;;7.5;100.0
67345;BME280;54230;52.402;6.276;2023-02-11T09:05:00;103350.0;;;7.7;100.0
67345;BME280;54230;52.402;6.276;2023-02-11T09:10:00;103350.0;;;7.7;100.0
67345;BME280;54230;52.402;6.276;2023-02-11T09:15:00;103350.0;;;7.8;100.0
67345;BME280;54230;52.402;6.276;2023-02-11T09:20:00;103370.0;;;7.9;100.0
67345;BME280;54230;52.402;6.276;2023-02-11T09:25:00;103380.0;;;8.1;100.0
67345;BME280;54230;52.402;6.276;2023-02-11T09:30:00;103390.00000000001;;;8.2;100.0
67345;BME280;54230;52.402;6.276;2023-02-11T09:35:00;103380.0;;;8.3;100.0
67345;BME280;54230;52.402;6.276;2023-02-11T09:40:00;103400.0;;;8.3;100.0
67345;BME280;54230;52.402;6.276;2023-02-11T09:45:01;103409.99999999999;;;8.4;100.0
67345;BME280;54230;52.402;6.276;2023-02-11T09:50:03;103409.99999999999;;;8.6;100.0
67345;BME280;54230;52.402;6.276;2023-02-11T09:55:02;103420.0;;;8.6;100.0
67345;BME280;54230;52.402;6.276;2023-02-11T10:00:02;103420.0;;;8.7;100.0
67345;BME280;54230;52.402;6.276;2023-02-11T10:05:12;103430.0;;;8.9;99.6
67345;BME280;54230;52.402;6.276;2023-02-11T10:10:09;103430.0;;;9.1;98.5
67345;BME280;54230;52.402;6.276;2023-02-11T10:15:07;103440.00000000001;;;9.1;98.4
67345;BME280;54230;52.402;6.276;2023-02-11T10:20:07;103440.00000000001;;;9.3;96.9
67345;BME280;54230;52.402;6.276;2023-02-11T10:25:14;103440.00000000001;;;9.2;96.7
67345;BME280;54230;52.402;6.276;2023-02-11T10:30:03;103450.0;;;9.2;96.1
67345;BME280;54230;52.402;6.276;2023-02-11T10:35:03;103459.99999999999;;;9.2;96.2
67345;BME280;54230;52.402;6.276;2023-02-11T10:40:00;103480.0;;;9.3;95.7
67345;BME280;54230;52.402;6.276;2023-02-11T10:45:03;103480.0;;;9.3;95.4
67345;BME280;54230;52.402;6.276;2023-02-11T10:50:16;103480.0;;;9.2;95.9
67345;BME280;54230;52.402;6.276;2023-02-11T10:55:03;103480.0;;;9.3;95.6
67345;BME280;54230;52.402;6.276;2023-02-11T11:00:04;103480.0;;;9.3;95.2
67345;BME280;54230;52.402;6.276;2023-02-11T11:05:02;103480.0;;;9.5;94.7
67345;BME280;54230;52.402;6.276;2023-02-11T11:10:02;103490.00000000001;;;9.6;93.7
67345;BME280;54230;52.402;6.276;2023-02-11T11:15:12;103490.00000000001;;;9.7;92.7
67345;BME280;54230;52.402;6.276;2023-02-11T11:20:14;103490.00000000001;;;9.8;92.6
67345;BME280;54230;52.402;6.276;2023-02-11T11:25:00;103480.0;;;9.9;92.3
67345;BME280;54230;52.402;6.276;2023-02-11T11:30:00;103480.0;;;10.1;91.0
67345;BME280;54230;52.402;6.276;2023-02-11T11:35:03;103470.0;;;10.1;90.4
67345;BME280;54230;52.402;6.276;2023-02-11T11:40:07;103459.99999999999;;;10.2;89.8
67345;BME280;54230;52.402;6.276;2023-02-11T11:45:03;103470.0;;;10.2;89.3
67345;BME280;54230;52.402;6.276;2023-02-11T11:50:13;103470.0;;;10.2;88.9
67345;BME280;54230;52.402;6.276;2023-02-11T11:55:04;103470.0;;;10.2;89.6
67345;BME280;54230;52.402;6.276;2023-02-11T12:00:00;103459.99999999999;;;10.2;89.3
67345;BME280;54230;52.402;6.276;2023-02-11T12:05:02;103450.0;;;10.2;89.1
67345;BME280;54230;52.402;6.276;2023-02-11T12:15:10;103470.0;;;10.3;88.4
67345;BME280;54230;52.402;6.276;2023-02-11T12:20:12;103480.0;;;10.5;87.8
67345;BME280;54230;52.402;6.276;2023-02-11T12:25:15;103480.0;;;10.6;87.2
67345;BME280;54230;52.402;6.276;2023-02-11T12:30:11;103480.0;;;10.5;86.1
67345;BME280;54230;52.402;6.276;2023-02-11T12:35:08;103480.0;;;10.6;86.3
67345;BME280;54230;52.402;6.276;2023-02-11T12:40:11;103480.0;;;10.8;85.5
67345;BME280;54230;52.402;6.276;2023-02-11T12:45:12;103480.0;;;10.8;84.8
67345;BME280;54230;52.402;6.276;2023-02-11T12:50:10;103480.0;;;10.9;84.5
67345;BME280;54230;52.402;6.276;2023-02-11T12:55:03;103480.0;;;10.9;84.1
67345;BME280;54230;52.402;6.276;2023-02-11T13:00:03;103470.0;;;10.9;82.9
67345;BME280;54230;52.402;6.276;2023-02-11T13:05:03;103470.0;;;10.9;83.2
67345;BME280;54230;52.402;6.276;2023-02-11T13:10:03;103480.0;;;11.0;82.4
67345;BME280;54230;52.402;6.276;2023-02-11T13:15:02;103470.0;;;11.0;82.9
67345;BME280;54230;52.402;6.276;2023-02-11T13:20:04;103470.0;;;11.0;81.9
67345;BME280;54230;52.402;6.276;2023-02-11T13:25:04;103459.99999999999;;;11.1;82.0
67345;BME280;54230;52.402;6.276;2023-02-11T13:30:13;103459.99999999999;;;11.3;80.9
67345;BME280;54230;52.402;6.276;2023-02-11T13:35:00;103470.0;;;11.2;80.8
67345;BME280;54230;52.402;6.276;2023-02-11T13:40:02;103459.99999999999;;;11.2;82.1
67345;BME280;54230;52.402;6.276;2023-02-11T13:45:00;103459.99999999999;;;11.1;81.2
67345;BME280;54230;52.402;6.276;2023-02-11T13:50:02;103459.99999999999;;;11.3;80.5
67345;BME280;54230;52.402;6.276;2023-02-11T13:55:04;103450.0;;;11.3;80.6
67345;BME280;54230;52.402;6.276;2023-02-11T14:00:08;103459.99999999999;;;11.2;80.8
67345;BME280;54230;52.402;6.276;2023-02-11T14:05:11;103459.99999999999;;;11.1;81.2
67345;BME280;54230;52.402;6.276;2023-02-11T14:10:00;103470.0;;;11.0;81.3
67345;BME280;54230;52.402;6.276;2023-02-11T14:15:18;103450.0;;;10.8;82.1
67345;BME280;54230;52.402;6.276;2023-02-11T14:20:02;103470.0;;;11.0;81.7
67345;BME280;54230;52.402;6.276;2023-02-11T14:25:02;103480.0;;;11.1;80.8
67345;BME280;54230;52.402;6.276;2023-02-11T14:30:16;103480.0;;;11.1;81.0
67345;BME280;54230;52.402;6.276;2023-02-11T14:35:04;103480.0;;;11.1;81.0
67345;BME280;54230;52.402;6.276;2023-02-11T14:40:09;103470.0;;;11.1;80.9
67345;BME280;54230;52.402;6.276;2023-02-11T14:45:04;103480.0;;;11.0;80.4
67345;BME280;54230;52.402;6.276;2023-02-11T14:50:00;103480.0;;;11.0;80.0
67345;BME280;54230;52.402;6.276;2023-02-11T14:55:08;103480.0;;;11.0;79.7
67345;BME280;54230;52.402;6.276;2023-02-11T15:00:02;103490.00000000001;;;10.9;81.0
67345;BME280;54230;52.402;6.276;2023-02-11T15:05:14;103490.00000000001;;;10.7;81.6
67345;BME280;54230;52.402;6.276;2023-02-11T15:10:00;103490.00000000001;;;10.9;81.0
67345;BME280;54230;52.402;6.276;2023-02-11T15:15:00;103490.00000000001;;;10.9;81.0
67345;BME280;54230;52.402;6.276;2023-02-11T15:20:00;103500.0;;;10.8;81.6
67345;BME280;54230;52.402;6.276;2023-02-11T15:25:06;103500.0;;;10.6;81.7
67345;BME280;54230;52.402;6.276;2023-02-11T15:30:00;103509.99999999999;;;10.6;81.6
67345;BME280;54230;52.402;6.276;2023-02-11T15:35:00;103500.0;;;10.3;82.1
67345;BME280;54230;52.402;6.276;2023-02-11T15:40:08;103520.0;;;10.3;83.2
67345;BME280;54230;52.402;6.276;2023-02-11T15:45:10;103520.0;;;10.2;83.5
67345;BME280;54230;52.402;6.276;2023-02-11T15:50:00;103509.99999999999;;;10.1;84.1
67345;BME280;54230;52.402;6.276;2023-02-11T15:55:01;103509.99999999999;;;10.1;84.2
67345;BME280;54230;52.402;6.276;2023-02-11T16:00:00;103520.0;;;9.9;85.0
67345;BME280;54230;52.402;6.276;2023-02-11T16:05:06;103520.0;;;9.9;85.3
67345;BME280;54230;52.402;6.276;2023-02-11T16:10:00;103520.0;;;9.8;85.8
67345;BME280;54230;52.402;6.276;2023-02-11T16:20:00;103530.0;;;9.8;86.0
67345;BME280;54230;52.402;6.276;2023-02-11T16:25:00;103530.0;;;9.7;86.3
67345;BME280;54230;52.402;6.276;2023-02-11T16:30:00;103540.00000000001;;;9.7;86.5
67345;BME280;54230;52.402;6.276;2023-02-11T16:35:00;103520.0;;;9.5;87.0
67345;BME280;54230;52.402;6.276;2023-02-11T16:40:00;103540.00000000001;;;9.7;87.2
67345;BME280;54230;52.402;6.276;2023-02-11T16:45:00;103559.99999999999;;;9.7;87.4
67345;BME280;54230;52.402;6.276;2023-02-11T16:50:01;103559.99999999999;;;9.6;87.8
67345;BME280;54230;52.402;6.276;2023-02-11T16:55:00;103559.99999999999;;;9.5;88.4
67345;BME280;54230;52.402;6.276;2023-02-11T17:00:00;103570.0;;;9.4;88.5
67345;BME280;54230;52.402;6.276;2023-02-11T17:05:02;103570.0;;;9.4;88.7
67345;BME280;54230;52.402;6.276;2023-02-11T17:10:00;103570.0;;;9.4;88.9
67345;BME280;54230;52.402;6.276;2023-02-11T17:15:00;103580.0;;;9.4;89.1
67345;BME280;54230;52.402;6.276;2023-02-11T17:20:00;103590.00000000001;;;9.4;89.0
67345;BME280;54230;52.402;6.276;2023-02-11T17:25:01;103590.00000000001;;;9.4;89.3
67345;BME280;54230;52.402;6.276;2023-02-11T17:30:00;103590.00000000001;;;9.4;89.4
67345;BME280;54230;52.402;6.276;2023-02-11T17:35:00;103590.00000000001;;;9.3;89.9
67345;BME280;54230;52.402;6.276;2023-02-11T17:40:00;103600.0;;;9.2;90.2
67345;BME280;54230;52.402;6.276;2023-02-11T17:45:00;103609.99999999999;;;9.2;90.3
67345;BME280;54230;52.402;6.276;2023-02-11T17:50:00;103620.0;;;9.1;90.9
67345;BME280;54230;52.402;6.276;2023-02-11T17:55:00;103620.0;;;9.1;91.0
67345;BME280;54230;52.402;6.276;2023-02-11T18:00:00;103609.99999999999;;;9.0;90.5
67345;BME280;54230;52.402;6.276;2023-02-11T18:05:00;103620.0;;;9.0;90.5
67345;BME280;54230;52.402;6.276;2023-02-11T18:10:00;103620.0;;;8.9;90.7
67345;BME280;54230;52.402;6.276;2023-02-11T18:15:00;103630.0;;;8.9;91.1
67345;BME280;54230;52.402;6.276;2023-02-11T18:20:00;103630.0;;;8.9;90.7
67345;BME280;54230;52.402;6.276;2023-02-11T18:25:00;103630.0;;;8.9;91.0
67345;BME280;54230;52.402;6.276;2023-02-11T18:30:00;103630.0;;;8.9;90.9
67345;BME280;54230;52.402;6.276;2023-02-11T18:35:00;103640.00000000001;;;8.9;91.2
67345;BME280;54230;52.402;6.276;2023-02-11T18:40:00;103640.00000000001;;;8.8;91.4
67345;BME280;54230;52.402;6.276;2023-02-11T18:45:00;103620.0;;;8.7;91.3
67345;BME280;54230;52.402;6.276;2023-02-11T18:50:00;103650.0;;;8.8;91.6
67345;BME280;54230;52.402;6.276;2023-02-11T18:55:00;103650.0;;;8.8;92.2
67345;BME280;54230;52.402;6.276;2023-02-11T19:00:00;103659.99999999999;;;8.8;92.4
67345;BME280;54230;52.402;6.276;2023-02-11T19:05:00;103659.99999999999;;;8.8;92.4
67345;BME280;54230;52.402;6.276;2023-02-11T19:10:00;103670.0;;;8.8;92.7
67345;BME280;54230;52.402;6.276;2023-02-11T19:15:00;103680.0;;;8.7;93.0
67345;BME280;54230;52.402;6.276;2023-02-11T19:20:00;103680.0;;;8.7;93.6
67345;BME280;54230;52.402;6.276;2023-02-11T19:25:00;103690.00000000001;;;8.6;94.1
67345;BME280;54230;52.402;6.276;2023-02-11T19:30:00;103680.0;;;8.6;94.4
67345;BME280;54230;52.402;6.276;2023-02-11T19:35:00;103690.00000000001;;;8.6;94.8
67345;BME280;54230;52.402;6.276;2023-02-11T19:40:00;103670.0;;;8.4;94.6
67345;BME280;54230;52.402;6.276;2023-02-11T19:45:00;103700.0;;;8.4;95.3
67345;BME280;54230;52.402;6.276;2023-02-11T19:50:00;103700.0;;;8.3;95.5
67345;BME280;54230;52.402;6.276;2023-02-11T19:55:00;103720.0;;;8.5;95.1
67345;BME280;54230;52.402;6.276;2023-02-11T20:00:00;103730.0;;;8.6;94.7
67345;BME280;54230;52.402;6.276;2023-02-11T20:05:00;103740.00000000001;;;8.5;94.8
67345;BME280;54230;52.402;6.276;2023-02-11T20:10:00;103720.0;;;8.4;94.8
67345;BME280;54230;52.402;6.276;2023-02-11T20:15:00;103740.00000000001;;;8.5;95.0
67345;BME280;54230;52.402;6.276;2023-02-11T20:20:00;103740.00000000001;;;8.4;94.8
67345;BME280;54230;52.402;6.276;2023-02-11T20:25:00;103750.0;;;8.4;95.5
67345;BME280;54230;52.402;6.276;2023-02-11T20:30:00;103759.99999999999;;;8.4;95.0
67345;BME280;54230;52.402;6.276;2023-02-11T20:35:00;103759.99999999999;;;8.4;95.2
67345;BME280;54230;52.402;6.276;2023-02-11T20:40:00;103740.00000000001;;;8.2;95.2
67345;BME280;54230;52.402;6.276;2023-02-11T20:45:00;103770.0;;;8.3;95.5
67345;BME280;54230;52.402;6.276;2023-02-11T20:50:00;103759.99999999999;;;8.3;95.6
67345;BME280;54230;52.402;6.276;2023-02-11T20:55:00;103750.0;;;8.3;95.4
67345;BME280;54230;52.402;6.276;2023-02-11T21:00:00;103759.99999999999;;;8.2;96.0
67345;BME280;54230;52.402;6.276;2023-02-11T21:05:00;103770.0;;;8.1;96.4
67345;BME280;54230;52.402;6.276;2023-02-11T21:10:00;103759.99999999999;;;8.0;96.6
67345;BME280;54230;52.402;6.276;2023-02-11T21:15:00;103780.0;;;8.1;97.3
67345;BME280;54230;52.402;6.276;2023-02-11T21:20:00;103790.00000000001;;;8.1;97.1
67345;BME280;54230;52.402;6.276;2023-02-11T21:25:00;103770.0;;;8.0;97.6
67345;BME280;54230;52.402;6.276;2023-02-11T21:30:00;103780.0;;;8.0;98.1
67345;BME280;54230;52.402;6.276;2023-02-11T21:35:00;103780.0;;;8.0;98.3
67345;BME280;54230;52.402;6.276;2023-02-11T21:40:00;103780.0;;;8.0;98.4
67345;BME280;54230;52.402;6.276;2023-02-11T21:45:00;103780.0;;;7.9;98.5
67345;BME280;54230;52.402;6.276;2023-02-11T21:50:00;103790.00000000001;;;7.9;98.7
67345;BME280;54230;52.402;6.276;2023-02-11T21:55:00;103790.00000000001;;;7.9;99.3
67345;BME280;54230;52.402;6.276;2023-02-11T22:00:00;103800.0;;;7.8;99.2
67345;BME280;54230;52.402;6.276;2023-02-11T22:05:00;103800.0;;;7.8;99.4
67345;BME280;54230;52.402;6.276;2023-02-11T22:10:00;103809.99999999999;;;7.8;99.4
67345;BME280;54230;52.402;6.276;2023-02-11T22:15:00;103820.0;;;7.8;99.3
67345;BME280;54230;52.402;6.276;2023-02-11T22:20:00;103809.99999999999;;;7.8;99.4
67345;BME280;54230;52.402;6.276;2023-02-11T22:25:00;103809.99999999999;;;7.7;100.0
67345;BME280;54230;52.402;6.276;2023-02-11T22:30:00;103730.0;;;7.1;99.9
67345;BME280;54230;52.402;6.276;2023-02-11T22:35:00;103809.99999999999;;;7.6;100.0
67345;BME280;54230;52.402;6.276;2023-02-11T22:40:00;103700.0;;;6.9;99.5
67345;BME280;54230;52.402;6.276;2023-02-11T22:45:00;103800.0;;;7.6;99.9
67345;BME280;54230;52.402;6.276;2023-02-11T22:50:00;103809.99999999999;;;7.5;100.0
67345;BME280;54230;52.402;6.276;2023-02-11T22:55:00;103820.0;;;7.6;100.0
67345;BME280;54230;52.402;6.276;2023-02-11T23:00:00;103820.0;;;7.5;100.0
67345;BME280;54230;52.402;6.276;2023-02-11T23:05:00;103809.99999999999;;;7.4;100.0
67345;BME280;54230;52.402;6.276;2023-02-11T23:10:00;103830.0;;;7.3;100.0
67345;BME280;54230;52.402;6.276;2023-02-11T23:15:00;103830.0;;;7.3;100.0
67345;BME280;54230;52.402;6.276;2023-02-11T23:20:00;103830.0;;;7.3;100.0
67345;BME280;54230;52.402;6.276;2023-02-11T23:25:00;103840.00000000001;;;7.3;100.0
67345;BME280;54230;52.402;6.276;2023-02-11T23:30:01;103840.00000000001;;;7.2;100.0
67345;BME280;54230;52.402;6.276;2023-02-11T23:35:00;103840.00000000001;;;7.2;100.0
67345;BME280;54230;52.402;6.276;2023-02-11T23:40:00;103850.0;;;7.1;100.0
67345;BME280;54230;52.402;6.276;2023-02-11T23:45:00;103850.0;;;7.1;100.0
67345;BME280;54230;52.402;6.276;2023-02-11T23:50:00;103850.0;;;7.0;100.0
67345;BME280;54230;52.402;6.276;2023-02-11T23:55:00;103850.0;;;7.0;100.0
